createdAt,value
2022-09-20T00:00:33.359Z,8.10
2022-09-20T00:03:18.772Z,7.63
2022-09-20T00:06:06.052Z,7.70
2022-09-20T00:08:52.284Z,5.65
2022-09-20T00:11:37.731Z,8.05
2022-09-20T00:14:23.372Z,7.97
2022-09-20T00:17:08.977Z,5.65
2022-09-20T00:19:54.516Z,6.80
2022-09-20T00:22:40.120Z,4.75
2022-09-20T00:25:25.530Z,8.15
2022-09-20T00:28:12.057Z,6.50
2022-09-20T00:30:57.683Z,6.72
2022-09-20T00:34:02.135Z,6.15
2022-09-20T00:36:47.731Z,4.70
2022-09-20T00:39:33.238Z,8.40
2022-09-20T00:42:18.600Z,4.20
2022-09-20T00:45:18.782Z,5.13
2022-09-20T00:48:12.812Z,6.38
2022-09-20T00:51:07.636Z,7.35
2022-09-20T00:53:56.124Z,6.82
2022-09-20T00:56:44.113Z,3.88
2022-09-20T00:59:42.447Z,5.68
2022-09-20T01:02:31.120Z,6.03
2022-09-20T01:05:18.835Z,7.43
2022-09-20T01:08:04.451Z,3.67
2022-09-20T01:10:51.017Z,6.63
2022-09-20T01:13:36.719Z,5.72
2022-09-20T01:16:24.558Z,3.00
2022-09-20T01:19:52.020Z,4.03
2022-09-20T01:22:59.947Z,5.75
2022-09-20T01:25:51.877Z,5.25
2022-09-20T01:28:38.830Z,3.72
2022-09-20T01:31:27.121Z,6.68
2022-09-20T01:34:17.084Z,6.28
2022-09-20T01:37:19.609Z,4.88
2022-09-20T01:40:31.829Z,4.20
2022-09-20T01:43:31.938Z,3.80
2022-09-20T01:46:33.848Z,4.85
2022-09-20T01:49:22.548Z,6.23
2022-09-20T01:52:11.123Z,4.13
2022-09-20T01:55:31.829Z,5.38
2022-09-20T01:58:42.709Z,4.50
2022-09-20T02:01:58.809Z,2.70
2022-09-20T02:05:12.860Z,4.27
2022-09-20T02:08:04.436Z,2.67
2022-09-20T02:10:55.895Z,4.77
2022-09-20T02:14:02.133Z,4.93
2022-09-20T02:16:57.686Z,3.00
2022-09-20T02:19:58.556Z,4.33
2022-09-20T02:22:59.083Z,4.47
2022-09-20T02:26:10.951Z,3.83
2022-09-20T02:29:27.157Z,3.50
2022-09-20T02:32:20.680Z,3.53
2022-09-20T02:35:32.639Z,3.53
2022-09-20T02:38:25.633Z,3.53
2022-09-20T02:41:23.347Z,3.87
2022-09-20T02:44:33.803Z,4.60
2022-09-20T02:47:36.016Z,6.13
2022-09-20T02:50:43.525Z,5.50
2022-09-20T02:53:46.771Z,4.27
2022-09-20T02:57:00.767Z,2.27
2022-09-20T03:00:01.744Z,3.70
2022-09-20T03:03:08.303Z,4.73
2022-09-20T03:06:28.951Z,3.10
2022-09-20T03:09:30.932Z,4.07
2022-09-20T03:12:43.308Z,4.63
2022-09-20T03:15:37.813Z,2.90
2022-09-20T03:18:46.765Z,3.33
2022-09-20T03:22:02.788Z,2.73
2022-09-20T03:25:13.472Z,4.37
2022-09-20T03:28:29.923Z,3.07
2022-09-20T03:31:22.662Z,2.40
2022-09-20T03:34:32.833Z,2.40
2022-09-20T03:37:34.058Z,3.13
2022-09-20T03:40:46.680Z,3.43
2022-09-20T03:43:54.427Z,4.17
2022-09-20T03:46:48.266Z,4.07
2022-09-20T03:50:12.887Z,7.10
2022-09-20T03:53:16.920Z,5.60
2022-09-20T03:56:49.637Z,3.30
2022-09-20T03:59:55.352Z,2.77
2022-09-20T04:03:09.118Z,3.10
2022-09-20T04:06:21.954Z,4.90
2022-09-20T04:09:49.312Z,2.73
2022-09-20T04:13:00.539Z,3.70
2022-09-20T04:16:08.766Z,4.97
2022-09-20T04:19:16.503Z,5.53
2022-09-20T04:22:03.175Z,4.37
2022-09-20T04:25:00.522Z,4.70
2022-09-20T04:27:55.488Z,3.03
2022-09-20T04:30:46.205Z,4.07
2022-09-20T04:33:40.033Z,5.10
2022-09-20T04:36:56.613Z,4.23
2022-09-20T04:39:59.015Z,5.17
2022-09-20T04:42:44.994Z,5.30
2022-09-20T04:45:52.530Z,3.17
2022-09-20T04:49:31.480Z,3.63
2022-09-20T04:52:35.538Z,5.93
2022-09-20T04:55:30.155Z,4.63
2022-09-20T04:59:03.448Z,5.30
2022-09-20T05:02:07.438Z,4.73
2022-09-20T05:05:24.399Z,4.93
2022-09-20T05:08:42.389Z,3.90
2022-09-20T05:11:46.690Z,3.80
2022-09-20T05:14:45.092Z,5.20
2022-09-20T05:17:59.656Z,5.43
2022-09-20T05:21:10.336Z,4.53
2022-09-20T05:24:01.745Z,5.83
2022-09-20T05:27:32.619Z,5.20
2022-09-20T05:30:20.978Z,3.57
2022-09-20T05:33:32.513Z,4.07
2022-09-20T05:36:34.562Z,6.37
2022-09-20T05:39:37.568Z,4.87
2022-09-20T05:42:42.937Z,5.17
2022-09-20T05:45:40.577Z,5.00
2022-09-20T05:49:09.248Z,4.43
2022-09-20T05:52:45.906Z,4.03
2022-09-20T05:55:49.825Z,5.30
2022-09-20T05:59:02.595Z,5.93
2022-09-20T06:02:13.773Z,5.57
2022-09-20T06:05:08.187Z,4.57
2022-09-20T06:08:14.898Z,4.20
2022-09-20T06:11:18.345Z,5.30
2022-09-20T06:14:44.181Z,4.17
2022-09-20T06:17:42.953Z,2.27
2022-09-20T06:20:43.597Z,2.28
2022-09-20T06:23:32.044Z,7.47
2022-09-20T06:26:25.132Z,2.95
2022-09-20T06:29:14.877Z,6.68
2022-09-20T06:32:00.508Z,3.05
2022-09-20T06:34:47.535Z,6.03
2022-09-20T06:38:13.690Z,3.22
2022-09-20T06:41:19.998Z,3.38
2022-09-20T06:44:07.742Z,5.10
2022-09-20T06:46:56.464Z,3.47
2022-09-20T06:49:43.010Z,6.32
2022-09-20T06:52:29.071Z,5.53
2022-09-20T06:55:27.222Z,4.38
2022-09-20T06:58:15.440Z,4.35
2022-09-20T07:01:01.033Z,5.15
2022-09-20T07:03:47.273Z,5.88
2022-09-20T07:06:36.837Z,3.30
2022-09-20T07:09:22.709Z,9.00
2022-09-20T07:12:10.749Z,3.40
2022-09-20T07:14:56.309Z,5.75
2022-09-20T07:17:45.313Z,12.85
2022-09-20T07:20:31.121Z,5.07
2022-09-20T07:23:16.684Z,9.57
2022-09-20T07:26:02.571Z,3.83
2022-09-20T07:28:50.071Z,5.97
2022-09-20T07:31:36.184Z,6.63
2022-09-20T07:34:21.887Z,4.88
2022-09-20T07:37:07.365Z,6.60
2022-09-20T07:39:53.062Z,4.50
2022-09-20T07:42:38.965Z,11.15
2022-09-20T07:45:25.027Z,5.70
2022-09-20T07:48:10.698Z,4.65
2022-09-20T07:51:08.916Z,4.28
2022-09-20T07:53:55.122Z,3.13
2022-09-20T07:56:41.367Z,4.63
2022-09-20T07:59:26.923Z,5.10
2022-09-20T08:02:16.666Z,3.33
2022-09-20T08:05:02.947Z,2.88
2022-09-20T08:07:48.351Z,3.38
2022-09-20T08:10:33.779Z,4.03
2022-09-20T08:16:25.881Z,4.15
2022-09-20T08:19:17.758Z,7.10
2022-09-20T08:22:03.415Z,4.35
2022-09-20T08:24:49.498Z,3.47
2022-09-20T08:27:34.807Z,3.95
2022-09-20T08:30:23.303Z,5.32
2022-09-20T08:33:13.198Z,2.65
2022-09-20T08:35:59.210Z,3.47
2022-09-20T08:41:58.612Z,2.45
2022-09-20T08:45:00.011Z,3.80
2022-09-20T08:47:58.807Z,4.82
2022-09-20T08:50:45.091Z,4.28
2022-09-20T08:53:31.410Z,4.05
2022-09-20T08:56:17.720Z,5.55
2022-09-20T08:59:04.917Z,3.92
2022-09-20T09:01:51.377Z,5.22
2022-09-20T09:04:37.065Z,3.67
2022-09-20T09:07:25.128Z,4.25
2022-09-20T09:10:10.695Z,5.68
2022-09-20T09:12:57.414Z,6.60
2022-09-20T09:15:46.173Z,3.05
2022-09-20T09:18:36.018Z,3.40
2022-09-20T09:21:26.378Z,5.55
2022-09-20T09:24:18.407Z,3.10
2022-09-20T09:27:14.836Z,5.70
2022-09-20T09:30:00.723Z,4.22
2022-09-20T09:32:46.149Z,2.90
2022-09-20T09:35:32.068Z,2.78
2022-09-20T09:38:21.696Z,2.38
2022-09-20T09:41:26.444Z,3.20
2022-09-20T09:44:25.676Z,3.45
2022-09-20T09:47:31.205Z,5.35
2022-09-20T09:50:27.072Z,4.63
2022-09-20T09:53:16.731Z,4.28
2022-09-20T09:56:29.401Z,2.05
2022-09-20T09:59:33.158Z,3.22
2022-09-20T10:02:41.228Z,3.85
2022-09-20T10:05:34.943Z,6.15
2022-09-20T10:08:48.536Z,4.35
2022-09-20T10:11:58.660Z,6.30
2022-09-20T10:15:10.459Z,7.85
2022-09-20T10:18:17.365Z,3.05
2022-09-20T10:21:28.584Z,2.70
2022-09-20T10:24:59.590Z,3.92
2022-09-20T10:27:44.964Z,5.53
2022-09-20T10:30:56.977Z,1.92
2022-09-20T10:33:57.124Z,3.70
2022-09-20T10:36:58.353Z,4.65
2022-09-20T10:39:52.417Z,3.13
2022-09-20T10:43:15.896Z,9.52
2022-09-20T10:46:31.456Z,8.18
2022-09-20T10:49:30.224Z,5.97
2022-09-20T10:53:03.740Z,4.90
2022-09-20T10:56:15.298Z,2.65
2022-09-20T10:59:22.524Z,4.07
2022-09-20T11:02:42.660Z,2.58
2022-09-20T11:05:52.311Z,3.30
2022-09-20T11:08:39.979Z,2.92
2022-09-20T11:11:42.505Z,4.10
2022-09-20T11:14:35.656Z,4.57
2022-09-20T11:17:44.072Z,3.92
2022-09-20T11:20:35.020Z,2.75
2022-09-20T11:23:27.840Z,3.17
2022-09-20T11:26:31.528Z,4.93
2022-09-20T11:29:24.292Z,4.35
2022-09-20T11:32:29.867Z,4.63
2022-09-20T11:35:39.391Z,2.63
2022-09-20T11:38:53.082Z,3.22
2022-09-20T11:41:39.800Z,6.10
2022-09-20T11:44:25.686Z,4.70
2022-09-20T11:47:36.948Z,5.35
2022-09-20T11:50:40.195Z,2.78
2022-09-20T11:53:38.077Z,3.30
2022-09-20T11:56:28.019Z,3.10
2022-09-20T11:59:34.873Z,4.75
2022-09-20T12:02:26.335Z,6.93
2022-09-20T12:05:37.231Z,4.10
2022-09-20T12:08:29.161Z,6.43
2022-09-20T12:11:16.283Z,6.30
2022-09-20T12:14:04.401Z,10.57
2022-09-20T12:16:51.168Z,4.57
2022-09-20T12:19:38.853Z,3.40
2022-09-20T12:22:28.631Z,6.88
2022-09-20T12:26:02.407Z,4.40
2022-09-20T12:28:55.607Z,4.20
2022-09-20T12:31:48.668Z,1.77
2022-09-20T12:34:36.567Z,2.90
2022-09-20T12:37:25.513Z,6.18
2022-09-20T12:40:16.387Z,3.90
2022-09-20T12:43:01.897Z,2.42
2022-09-20T12:45:54.618Z,3.13
2022-09-20T12:48:41.694Z,1.88
2022-09-20T12:51:51.248Z,2.75
2022-09-20T12:54:53.617Z,1.73
2022-09-20T12:57:40.513Z,3.33
2022-09-20T13:01:01.049Z,3.58
2022-09-20T13:03:49.125Z,1.70
2022-09-20T13:06:34.894Z,1.17
2022-09-20T13:09:21.389Z,1.38
2022-09-20T13:12:07.161Z,1.67
2022-09-20T13:14:52.960Z,1.73
2022-09-20T13:17:41.990Z,2.58
2022-09-20T13:20:31.469Z,1.05
2022-09-20T13:23:26.241Z,2.53
2022-09-20T13:26:15.852Z,1.48
2022-09-20T13:29:03.112Z,6.57
2022-09-20T13:31:48.887Z,1.35
2022-09-20T13:34:34.504Z,1.50
2022-09-20T13:37:23.716Z,1.58
2022-09-20T13:40:25.371Z,2.65
2022-09-20T13:43:46.575Z,4.95
2022-09-20T13:46:33.659Z,4.28
2022-09-20T13:49:24.657Z,1.65
2022-09-20T13:52:28.130Z,3.50
2022-09-20T13:55:31.945Z,2.92
2022-09-20T13:58:22.183Z,3.67
2022-09-20T14:01:26.722Z,2.03
2022-09-20T14:04:24.469Z,1.85
2022-09-20T14:07:11.136Z,1.52
2022-09-20T14:09:58.930Z,1.20
2022-09-20T14:12:45.596Z,0.98
2022-09-20T14:15:37.149Z,1.60
2022-09-20T14:18:24.410Z,3.33
2022-09-20T14:21:11.669Z,1.08
2022-09-20T14:24:06.354Z,0.68
2022-09-20T14:27:01.226Z,1.55
2022-09-20T14:29:53.965Z,1.42
2022-09-20T14:32:52.301Z,1.38
2022-09-20T14:35:38.076Z,3.17
2022-09-20T14:38:26.092Z,1.90
2022-09-20T14:41:13.228Z,1.05
2022-09-20T14:44:02.385Z,2.95
2022-09-20T14:46:48.038Z,2.55
2022-09-20T14:49:33.823Z,1.50
2022-09-20T14:52:25.595Z,1.95
2022-09-20T14:55:14.007Z,2.47
2022-09-20T14:58:10.312Z,2.45
2022-09-20T15:01:05.829Z,1.60
2022-09-20T15:03:52.348Z,2.40
2022-09-20T15:06:40.083Z,6.22
2022-09-20T15:09:25.980Z,1.65
2022-09-20T15:12:17.375Z,6.47
2022-09-20T15:15:03.395Z,4.45
2022-09-20T15:17:49.205Z,4.97
2022-09-20T15:20:34.893Z,5.53
2022-09-20T15:23:20.652Z,6.07
2022-09-20T15:26:07.079Z,3.63
2022-09-20T15:28:52.733Z,5.50
2022-09-20T15:31:38.174Z,5.40
2022-09-20T15:34:23.886Z,4.75
2022-09-20T15:37:09.465Z,7.82
2022-09-20T15:39:54.995Z,4.40
2022-09-20T15:42:41.788Z,6.65
2022-09-20T15:45:28.151Z,9.02
2022-09-20T15:48:14.937Z,2.20
2022-09-20T15:51:04.416Z,2.47
2022-09-20T15:54:02.385Z,5.78
2022-09-20T15:56:48.092Z,7.03
2022-09-20T15:59:34.469Z,4.28
2022-09-20T16:02:21.575Z,3.67
2022-09-20T16:05:10.019Z,5.70
2022-09-20T16:07:57.756Z,4.53
2022-09-20T16:10:43.354Z,3.80
2022-09-20T16:13:29.241Z,1.63
2022-09-20T16:16:15.941Z,1.92
2022-09-20T16:19:20.371Z,3.88
2022-09-20T16:22:05.910Z,5.85
2022-09-20T16:24:51.776Z,5.40
2022-09-20T16:27:37.194Z,3.58
2022-09-20T16:30:22.963Z,2.67
2022-09-20T16:33:11.874Z,3.00
2022-09-20T16:35:59.107Z,2.03
2022-09-20T16:38:45.121Z,3.22
2022-09-20T16:41:31.599Z,2.30
2022-09-20T16:44:17.072Z,2.85
2022-09-20T16:47:03.525Z,1.35
2022-09-20T16:49:50.595Z,2.72
2022-09-20T16:52:37.009Z,2.42
2022-09-20T16:55:22.569Z,2.42
2022-09-20T16:58:09.126Z,1.25
2022-09-20T17:01:02.295Z,0.95
2022-09-20T17:03:48.343Z,2.45
2022-09-20T17:06:36.191Z,3.53
2022-09-20T17:09:21.931Z,2.15
2022-09-20T17:12:09.534Z,2.55
2022-09-20T17:14:55.087Z,1.58
2022-09-20T17:17:42.238Z,1.25
2022-09-20T17:20:28.697Z,1.67
2022-09-20T17:23:14.864Z,1.40
2022-09-20T17:26:11.648Z,1.15
2022-09-20T17:28:58.436Z,2.28
2022-09-20T17:31:51.537Z,1.25
2022-09-20T17:34:39.767Z,2.33
2022-09-20T17:37:25.288Z,2.67
2022-09-20T17:40:10.961Z,3.13
2022-09-20T17:42:56.756Z,1.75
2022-09-20T17:45:42.192Z,3.05
2022-09-20T17:48:27.596Z,2.85
2022-09-20T17:51:13.155Z,4.13
2022-09-20T17:53:59.091Z,3.95
2022-09-20T17:56:50.550Z,3.53
2022-09-20T17:59:36.795Z,3.65
2022-09-20T18:02:22.416Z,1.60
2022-09-20T18:05:08.629Z,4.60
2022-09-20T18:07:54.120Z,2.40
2022-09-20T18:10:39.579Z,1.80
2022-09-20T18:13:27.732Z,3.08
2022-09-20T18:16:15.513Z,5.25
2022-09-20T18:19:01.637Z,12.65
2022-09-20T18:21:47.824Z,18.10
2022-09-20T18:24:33.448Z,24.02
2022-09-20T18:27:19.021Z,25.20
2022-09-20T18:30:05.973Z,17.88
2022-09-20T18:32:51.491Z,23.25
2022-09-20T18:35:42.737Z,16.27
2022-09-20T18:38:29.100Z,13.25
2022-09-20T18:41:14.477Z,14.68
2022-09-20T18:44:04.028Z,13.10
2022-09-20T18:46:53.007Z,14.10
2022-09-20T18:49:38.828Z,11.15
2022-09-20T18:52:24.919Z,10.90
2022-09-20T18:55:11.132Z,11.27
2022-09-20T18:58:01.196Z,10.90
2022-09-20T19:00:51.906Z,8.70
2022-09-20T19:04:18.404Z,8.52
2022-09-20T19:07:10.224Z,7.55
2022-09-20T19:10:22.267Z,7.78
2022-09-20T19:13:38.980Z,6.60
2022-09-20T19:16:30.650Z,5.10
2022-09-20T19:19:38.192Z,5.47
2022-09-20T19:23:07.198Z,7.30
2022-09-20T19:26:21.969Z,7.40
2022-09-20T19:29:28.331Z,3.90
2022-09-20T19:32:24.293Z,3.13
2022-09-20T19:35:22.053Z,4.25
2022-09-20T19:38:25.921Z,2.80
2022-09-20T19:41:30.339Z,2.25
2022-09-20T19:44:49.349Z,2.88
2022-09-20T19:47:52.041Z,5.70
2022-09-20T19:50:47.301Z,2.95
2022-09-20T19:53:33.244Z,3.50
2022-09-20T19:56:24.742Z,3.53
2022-09-20T19:59:17.389Z,3.72
2022-09-20T20:02:03.287Z,5.30
2022-09-20T20:04:49.264Z,5.13
2022-09-20T20:07:47.016Z,6.80
2022-09-20T20:10:56.579Z,5.35
2022-09-20T20:14:03.343Z,5.10
2022-09-20T20:17:01.436Z,3.97
2022-09-20T20:20:36.921Z,4.60
2022-09-20T20:23:52.763Z,3.75
2022-09-20T20:26:38.870Z,4.03
2022-09-20T20:29:24.612Z,3.85
2022-09-20T20:32:10.820Z,4.10
2022-09-20T20:34:56.496Z,4.28
2022-09-20T20:37:42.234Z,4.90
2022-09-20T20:40:28.382Z,2.58
2022-09-20T20:43:13.600Z,3.60
2022-09-20T20:45:59.151Z,4.10
2022-09-20T20:48:47.284Z,3.53
2022-09-20T20:51:33.278Z,4.32
2022-09-20T20:54:19.140Z,4.18
2022-09-20T20:57:04.655Z,4.85
2022-09-20T20:59:50.277Z,3.75
2022-09-20T21:02:35.721Z,3.10
2022-09-20T21:05:24.417Z,4.70
2022-09-20T21:08:11.354Z,3.65
2022-09-20T21:11:07.176Z,3.23
2022-09-20T21:13:54.589Z,2.90
2022-09-20T21:16:43.273Z,4.30
2022-09-20T21:19:28.776Z,3.70
2022-09-20T21:22:14.388Z,3.10
2022-09-20T21:24:59.933Z,3.50
2022-09-20T21:27:45.527Z,4.10
2022-09-20T21:30:31.261Z,3.37
2022-09-20T21:33:16.975Z,3.73
2022-09-20T21:36:03.834Z,3.47
2022-09-20T21:38:49.528Z,3.77
2022-09-20T21:41:37.176Z,2.87
2022-09-20T21:44:23.232Z,2.47
2022-09-20T21:47:09.397Z,2.53
2022-09-20T21:49:55.583Z,2.60
2022-09-20T21:52:44.233Z,4.33
2022-09-20T21:55:29.876Z,2.87
2022-09-20T21:58:15.502Z,2.70
2022-09-20T22:01:04.908Z,2.87
2022-09-20T22:03:57.389Z,2.63
2022-09-20T22:06:44.908Z,2.50
2022-09-20T22:09:30.960Z,4.07
2022-09-20T22:12:16.727Z,2.20
2022-09-20T22:15:02.045Z,3.23
2022-09-20T22:17:47.687Z,2.30
2022-09-20T22:20:33.328Z,2.17
2022-09-20T22:23:18.808Z,2.37
2022-09-20T22:26:08.021Z,2.20
2022-09-20T22:28:53.561Z,2.93
2022-09-20T22:31:47.052Z,3.00
2022-09-20T22:34:32.605Z,2.43
2022-09-20T22:37:18.188Z,3.57
2022-09-20T22:40:04.103Z,2.00
2022-09-20T22:42:49.604Z,2.57
2022-09-20T22:45:35.137Z,1.70
2022-09-20T22:48:21.060Z,1.90
2022-09-20T22:51:09.285Z,2.20
2022-09-20T22:53:54.844Z,2.43
2022-09-20T22:56:43.924Z,3.27
2022-09-20T22:59:29.595Z,1.90
2022-09-20T23:02:15.030Z,2.87
2022-09-20T23:05:00.682Z,2.57
2022-09-20T23:07:48.997Z,2.23
2022-09-20T23:10:34.557Z,1.63
2022-09-20T23:13:19.948Z,1.80
2022-09-20T23:16:18.713Z,1.70
2022-09-20T23:19:06.540Z,2.03
2022-09-20T23:21:52.141Z,3.13
2022-09-20T23:24:37.770Z,1.97
2022-09-20T23:27:23.093Z,3.83
2022-09-20T23:30:08.934Z,2.23
2022-09-20T23:32:54.397Z,2.20
2022-09-20T23:35:46.406Z,1.83
2022-09-20T23:38:31.760Z,1.67
2022-09-20T23:41:20.424Z,1.93
2022-09-20T23:44:07.405Z,1.70
2022-09-20T23:46:52.970Z,1.60
2022-09-20T23:49:38.530Z,2.60
2022-09-20T23:52:23.873Z,1.53
2022-09-20T23:55:09.628Z,1.60
2022-09-20T23:57:58.277Z,2.13
